Antonio Macea, Cuba

10:49 AM CDT on May 23, 2017 (GMT -0400)
Guantanamo Bay Naval Air Station | | Change Station

Elev 56 ft 19.91 °N, 75.21 °W | Updated 53 minutes ago

Clear
Clear
84 °F
Feels Like 90 °F
N
5
Wind Variable Wind from ESE

Today
High -- | Low -- °F
--% Chance of Precip.
Yesterday
High -- | Low -- °F
Precip. -- in
Pressure 30.02 in
Visibility 6.2 miles
Clouds Few 18000 ft
Scattered Clouds 27000 ft
Heat Index 90 °F
Dew Point 72 °F
Humidity 67%
Rainfall 0.00 in
Snow Depth Not available.
6:24 AM 7:35 PM
Waning Crescent, 7% visible
METAR MUGM 231356Z 11004KT 9999 FEW180 SCT270 29/22 A3002 RMK SLP165 T02890222
Pressure 30.02 in
Visibility 6.2 miles
Clouds Few 18000 ft
Scattered Clouds 27000 ft
Heat Index 90 °F
Dew Point 72 °F
Humidity 67%
Rainfall 0.00 in
Snow Depth Not available.
6:24 AM 7:35 PM
Waning Crescent, 7% visible
METAR MUGM 231356Z 11004KT 9999 FEW180 SCT270 29/22 A3002 RMK SLP165 T02890222

Get Severe Weather Alerts

Thanks for signing up!

Be on the lookout for a verification email in your inbox.

You'll start receiving the daily forecast at 6 AM.

×

10-Day Weather Forecast

No radar image for this location.
×

Almanac

Astronomy

May. 23, 2017 Rise Set
Actual Time
Civil Twilight
Nautical Twilight
Astronomical Twilight
Moon
Length of Visible Light
Length of Day
Tomorrow will be .
, % of the Moon is Illuminated

Today's Extremes

Country Highs Country Lows

Community

WunderPhotos

Category 6

Welcome to Category 6. This is the collective home for Weather Underground's featured writeups by Dr. Jeff Masters (right), Bob Henson (left), Chris Burt, and other regular contributors.

Nearby

Air Quality

  Air Quality AQ Index Pollutant
Not available.

Snow Depth

Station Depth Elevation

Earthquake Activity

City Distance Mag. Time & Date
Minimum magnitude displayed is 2.5.

Coastal Water Temperatures

Place Temperature

Stations

Nearby Weather Stations

Station Location Temp. Windchill Dew Point Humidity Wind Precip. Elev Updated Type